sensor_id;sensor_type;location;lat;lon;timestamp;temperature;humidity
4964;DHT22;2497;47.410;9.740;2024-02-28T00:01:35;7.10;99.90
4964;DHT22;2497;47.410;9.740;2024-02-28T00:04:04;7.10;99.90
4964;DHT22;2497;47.410;9.740;2024-02-28T00:06:34;7.10;99.90
4964;DHT22;2497;47.410;9.740;2024-02-28T00:09:01;7.10;99.90
4964;DHT22;2497;47.410;9.740;2024-02-28T00:11:29;7.10;99.90
4964;DHT22;2497;47.410;9.740;2024-02-28T00:13:56;7.10;99.90
4964;DHT22;2497;47.410;9.740;2024-02-28T00:16:27;7.10;99.90
4964;DHT22;2497;47.410;9.740;2024-02-28T00:18:57;7.10;99.90
4964;DHT22;2497;47.410;9.740;2024-02-28T00:21:25;7.10;99.90
4964;DHT22;2497;47.410;9.740;2024-02-28T00:23:52;7.10;99.90
4964;DHT22;2497;47.410;9.740;2024-02-28T00:26:19;7.10;99.90
4964;DHT22;2497;47.410;9.740;2024-02-28T00:28:46;7.20;99.90
4964;DHT22;2497;47.410;9.740;2024-02-28T00:31:13;7.10;99.90
4964;DHT22;2497;47.410;9.740;2024-02-28T00:33:43;7.20;99.90
4964;DHT22;2497;47.410;9.740;2024-02-28T00:36:10;7.20;99.90
4964;DHT22;2497;47.410;9.740;2024-02-28T00:38:42;7.20;99.90
4964;DHT22;2497;47.410;9.740;2024-02-28T00:41:09;7.20;99.90
4964;DHT22;2497;47.410;9.740;2024-02-28T00:43:36;7.20;99.90
4964;DHT22;2497;47.410;9.740;2024-02-28T00:46:06;7.20;99.90
4964;DHT22;2497;47.410;9.740;2024-02-28T00:48:37;7.20;99.90
4964;DHT22;2497;47.410;9.740;2024-02-28T00:51:04;7.10;99.90
4964;DHT22;2497;47.410;9.740;2024-02-28T00:53:31;7.10;99.90
4964;DHT22;2497;47.410;9.740;2024-02-28T00:56:00;7.10;99.90
4964;DHT22;2497;47.410;9.740;2024-02-28T00:58:27;7.20;99.90
4964;DHT22;2497;47.410;9.740;2024-02-28T01:00:55;7.20;99.90
4964;DHT22;2497;47.410;9.740;2024-02-28T01:03:23;7.20;99.90
4964;DHT22;2497;47.410;9.740;2024-02-28T01:05:50;7.20;99.90
4964;DHT22;2497;47.410;9.740;2024-02-28T01:08:17;7.20;99.90
4964;DHT22;2497;47.410;9.740;2024-02-28T01:10:45;7.20;99.90
4964;DHT22;2497;47.410;9.740;2024-02-28T01:13:14;7.20;99.90
4964;DHT22;2497;47.410;9.740;2024-02-28T01:15:41;7.10;99.90
4964;DHT22;2497;47.410;9.740;2024-02-28T01:18:09;7.10;99.90
4964;DHT22;2497;47.410;9.740;2024-02-28T01:20:36;7.10;99.90
4964;DHT22;2497;47.410;9.740;2024-02-28T01:23:03;7.10;99.90
4964;DHT22;2497;47.410;9.740;2024-02-28T01:25:31;7.20;99.90
4964;DHT22;2497;47.410;9.740;2024-02-28T01:27:58;7.10;99.90
4964;DHT22;2497;47.410;9.740;2024-02-28T01:30:26;7.10;99.90
4964;DHT22;2497;47.410;9.740;2024-02-28T01:32:53;7.10;99.90
4964;DHT22;2497;47.410;9.740;2024-02-28T01:35:20;7.00;99.90
4964;DHT22;2497;47.410;9.740;2024-02-28T01:37:47;7.00;99.90
4964;DHT22;2497;47.410;9.740;2024-02-28T01:40:15;7.00;99.90
4964;DHT22;2497;47.410;9.740;2024-02-28T01:42:42;7.00;99.90
4964;DHT22;2497;47.410;9.740;2024-02-28T01:45:13;7.00;99.90
4964;DHT22;2497;47.410;9.740;2024-02-28T01:47:42;7.00;99.90
4964;DHT22;2497;47.410;9.740;2024-02-28T01:50:09;7.00;99.90
4964;DHT22;2497;47.410;9.740;2024-02-28T01:52:38;7.00;99.90
4964;DHT22;2497;47.410;9.740;2024-02-28T01:55:06;7.00;99.90
4964;DHT22;2497;47.410;9.740;2024-02-28T01:57:37;7.00;99.90
4964;DHT22;2497;47.410;9.740;2024-02-28T02:00:05;7.00;99.90
4964;DHT22;2497;47.410;9.740;2024-02-28T02:02:34;7.00;99.90
4964;DHT22;2497;47.410;9.740;2024-02-28T02:05:02;7.00;99.90
4964;DHT22;2497;47.410;9.740;2024-02-28T02:07:30;7.00;99.90
4964;DHT22;2497;47.410;9.740;2024-02-28T02:09:58;7.00;99.90
4964;DHT22;2497;47.410;9.740;2024-02-28T02:12:25;7.00;99.90
4964;DHT22;2497;47.410;9.740;2024-02-28T02:14:52;7.00;99.90
4964;DHT22;2497;47.410;9.740;2024-02-28T02:17:19;7.10;99.90
4964;DHT22;2497;47.410;9.740;2024-02-28T02:19:46;7.10;99.90
4964;DHT22;2497;47.410;9.740;2024-02-28T02:22:15;7.10;99.90
4964;DHT22;2497;47.410;9.740;2024-02-28T02:24:44;7.10;99.90
4964;DHT22;2497;47.410;9.740;2024-02-28T02:27:11;7.10;99.90
4964;DHT22;2497;47.410;9.740;2024-02-28T02:29:38;7.10;99.90
4964;DHT22;2497;47.410;9.740;2024-02-28T02:32:06;7.00;99.90
4964;DHT22;2497;47.410;9.740;2024-02-28T02:34:33;7.00;99.90
4964;DHT22;2497;47.410;9.740;2024-02-28T02:37:00;7.00;99.90
4964;DHT22;2497;47.410;9.740;2024-02-28T02:39:27;7.00;99.90
4964;DHT22;2497;47.410;9.740;2024-02-28T02:41:55;6.90;99.90
4964;DHT22;2497;47.410;9.740;2024-02-28T02:44:22;6.90;99.90
4964;DHT22;2497;47.410;9.740;2024-02-28T02:46:49;6.90;99.90
4964;DHT22;2497;47.410;9.740;2024-02-28T02:49:16;6.80;99.90
4964;DHT22;2497;47.410;9.740;2024-02-28T02:51:44;6.80;99.90
4964;DHT22;2497;47.410;9.740;2024-02-28T02:54:11;6.80;99.90
4964;DHT22;2497;47.410;9.740;2024-02-28T02:56:41;6.80;99.90
4964;DHT22;2497;47.410;9.740;2024-02-28T02:59:10;6.80;99.90
4964;DHT22;2497;47.410;9.740;2024-02-28T03:01:38;6.70;99.90
4964;DHT22;2497;47.410;9.740;2024-02-28T03:04:05;6.80;99.90
4964;DHT22;2497;47.410;9.740;2024-02-28T03:06:32;6.80;99.90
4964;DHT22;2497;47.410;9.740;2024-02-28T03:08:59;6.80;99.90
4964;DHT22;2497;47.410;9.740;2024-02-28T03:11:26;6.80;99.90
4964;DHT22;2497;47.410;9.740;2024-02-28T03:13:53;6.80;99.90
4964;DHT22;2497;47.410;9.740;2024-02-28T03:16:21;6.80;99.90
4964;DHT22;2497;47.410;9.740;2024-02-28T03:18:48;6.80;99.90
4964;DHT22;2497;47.410;9.740;2024-02-28T03:21:15;6.80;99.90
4964;DHT22;2497;47.410;9.740;2024-02-28T03:23:42;6.80;99.90
4964;DHT22;2497;47.410;9.740;2024-02-28T03:26:09;6.80;99.90
4964;DHT22;2497;47.410;9.740;2024-02-28T03:28:36;6.80;99.90
4964;DHT22;2497;47.410;9.740;2024-02-28T03:31:06;6.80;99.90
4964;DHT22;2497;47.410;9.740;2024-02-28T03:33:35;6.70;99.90
4964;DHT22;2497;47.410;9.740;2024-02-28T03:36:05;6.80;99.90
4964;DHT22;2497;47.410;9.740;2024-02-28T03:38:35;6.80;99.90
4964;DHT22;2497;47.410;9.740;2024-02-28T03:41:02;6.80;99.90
4964;DHT22;2497;47.410;9.740;2024-02-28T03:43:29;6.70;99.90
4964;DHT22;2497;47.410;9.740;2024-02-28T03:45:56;6.70;99.90
4964;DHT22;2497;47.410;9.740;2024-02-28T03:48:23;6.70;99.90
4964;DHT22;2497;47.410;9.740;2024-02-28T03:50:52;6.70;99.90
4964;DHT22;2497;47.410;9.740;2024-02-28T03:53:19;6.70;99.90
4964;DHT22;2497;47.410;9.740;2024-02-28T03:55:46;6.70;99.90
4964;DHT22;2497;47.410;9.740;2024-02-28T03:58:13;6.70;99.90
4964;DHT22;2497;47.410;9.740;2024-02-28T04:00:40;6.70;99.90
4964;DHT22;2497;47.410;9.740;2024-02-28T04:03:10;6.70;99.90
4964;DHT22;2497;47.410;9.740;2024-02-28T04:05:37;6.70;99.90
4964;DHT22;2497;47.410;9.740;2024-02-28T04:08:06;6.90;99.90
4964;DHT22;2497;47.410;9.740;2024-02-28T04:10:33;7.10;99.90
4964;DHT22;2497;47.410;9.740;2024-02-28T04:13:00;7.10;99.90
4964;DHT22;2497;47.410;9.740;2024-02-28T04:15:27;7.10;99.90
4964;DHT22;2497;47.410;9.740;2024-02-28T04:17:54;7.10;99.90
4964;DHT22;2497;47.410;9.740;2024-02-28T04:20:21;7.00;99.90
4964;DHT22;2497;47.410;9.740;2024-02-28T04:22:48;6.80;99.90
4964;DHT22;2497;47.410;9.740;2024-02-28T04:25:16;6.70;99.90
4964;DHT22;2497;47.410;9.740;2024-02-28T04:27:43;6.70;99.90
4964;DHT22;2497;47.410;9.740;2024-02-28T04:30:13;6.70;99.90
4964;DHT22;2497;47.410;9.740;2024-02-28T04:32:40;6.60;99.90
4964;DHT22;2497;47.410;9.740;2024-02-28T04:35:08;6.60;99.90
4964;DHT22;2497;47.410;9.740;2024-02-28T04:37:35;6.60;99.90
4964;DHT22;2497;47.410;9.740;2024-02-28T04:40:02;6.60;99.90
4964;DHT22;2497;47.410;9.740;2024-02-28T04:42:31;6.50;99.90
4964;DHT22;2497;47.410;9.740;2024-02-28T04:44:58;6.50;99.90
4964;DHT22;2497;47.410;9.740;2024-02-28T04:47:25;6.60;99.90
4964;DHT22;2497;47.410;9.740;2024-02-28T04:49:52;6.60;99.90
4964;DHT22;2497;47.410;9.740;2024-02-28T04:52:19;6.60;99.90
4964;DHT22;2497;47.410;9.740;2024-02-28T04:54:46;6.60;99.90
4964;DHT22;2497;47.410;9.740;2024-02-28T04:57:13;6.60;99.90
4964;DHT22;2497;47.410;9.740;2024-02-28T04:59:43;6.60;99.90
4964;DHT22;2497;47.410;9.740;2024-02-28T05:02:10;6.60;99.90
4964;DHT22;2497;47.410;9.740;2024-02-28T05:04:37;6.60;99.90
4964;DHT22;2497;47.410;9.740;2024-02-28T05:07:05;6.60;99.90
4964;DHT22;2497;47.410;9.740;2024-02-28T05:09:33;6.70;99.90
4964;DHT22;2497;47.410;9.740;2024-02-28T05:12:00;6.70;99.90
4964;DHT22;2497;47.410;9.740;2024-02-28T05:14:28;6.70;99.90
4964;DHT22;2497;47.410;9.740;2024-02-28T05:16:56;6.70;99.90
4964;DHT22;2497;47.410;9.740;2024-02-28T05:19:23;6.70;99.90
4964;DHT22;2497;47.410;9.740;2024-02-28T05:21:50;6.70;99.90
4964;DHT22;2497;47.410;9.740;2024-02-28T05:24:17;6.70;99.90
4964;DHT22;2497;47.410;9.740;2024-02-28T05:26:44;6.70;99.90
4964;DHT22;2497;47.410;9.740;2024-02-28T05:29:14;6.70;99.90
4964;DHT22;2497;47.410;9.740;2024-02-28T05:31:41;6.70;99.90
4964;DHT22;2497;47.410;9.740;2024-02-28T05:34:09;6.60;99.90
4964;DHT22;2497;47.410;9.740;2024-02-28T05:36:37;6.60;99.90
4964;DHT22;2497;47.410;9.740;2024-02-28T05:39:06;6.70;99.90
4964;DHT22;2497;47.410;9.740;2024-02-28T05:41:34;6.60;99.90
4964;DHT22;2497;47.410;9.740;2024-02-28T05:44:01;6.60;99.90
4964;DHT22;2497;47.410;9.740;2024-02-28T05:46:28;6.60;99.90
4964;DHT22;2497;47.410;9.740;2024-02-28T05:48:55;6.60;99.90
4964;DHT22;2497;47.410;9.740;2024-02-28T05:51:23;6.60;99.90
4964;DHT22;2497;47.410;9.740;2024-02-28T05:53:50;6.60;99.90
4964;DHT22;2497;47.410;9.740;2024-02-28T05:56:17;6.60;99.90
4964;DHT22;2497;47.410;9.740;2024-02-28T05:58:46;6.60;99.90
4964;DHT22;2497;47.410;9.740;2024-02-28T06:01:15;6.70;99.90
4964;DHT22;2497;47.410;9.740;2024-02-28T06:03:44;6.60;99.90
4964;DHT22;2497;47.410;9.740;2024-02-28T06:06:11;6.60;99.90
4964;DHT22;2497;47.410;9.740;2024-02-28T06:08:40;6.60;99.90
4964;DHT22;2497;47.410;9.740;2024-02-28T06:11:07;6.60;99.90
4964;DHT22;2497;47.410;9.740;2024-02-28T06:13:35;6.60;99.90
4964;DHT22;2497;47.410;9.740;2024-02-28T06:16:03;6.60;99.90
4964;DHT22;2497;47.410;9.740;2024-02-28T06:18:33;6.60;99.90
4964;DHT22;2497;47.410;9.740;2024-02-28T06:21:00;6.60;99.90
4964;DHT22;2497;47.410;9.740;2024-02-28T06:23:27;6.60;99.90
4964;DHT22;2497;47.410;9.740;2024-02-28T06:25:56;6.60;99.90
4964;DHT22;2497;47.410;9.740;2024-02-28T06:28:23;6.60;99.90
4964;DHT22;2497;47.410;9.740;2024-02-28T06:30:50;6.60;99.90
4964;DHT22;2497;47.410;9.740;2024-02-28T06:33:18;6.70;99.90
4964;DHT22;2497;47.410;9.740;2024-02-28T06:35:45;6.70;99.90
4964;DHT22;2497;47.410;9.740;2024-02-28T06:38:12;6.60;99.90
4964;DHT22;2497;47.410;9.740;2024-02-28T06:40:39;6.70;99.90
4964;DHT22;2497;47.410;9.740;2024-02-28T06:43:08;6.70;99.90
4964;DHT22;2497;47.410;9.740;2024-02-28T06:45:35;6.80;99.90
4964;DHT22;2497;47.410;9.740;2024-02-28T06:48:03;6.80;99.90
4964;DHT22;2497;47.410;9.740;2024-02-28T06:50:30;6.80;99.90
4964;DHT22;2497;47.410;9.740;2024-02-28T06:52:57;6.80;99.90
4964;DHT22;2497;47.410;9.740;2024-02-28T06:55:26;6.80;99.90
4964;DHT22;2497;47.410;9.740;2024-02-28T06:57:53;6.80;99.90
4964;DHT22;2497;47.410;9.740;2024-02-28T07:00:20;6.70;99.90
4964;DHT22;2497;47.410;9.740;2024-02-28T07:02:47;6.80;99.90
4964;DHT22;2497;47.410;9.740;2024-02-28T07:05:14;6.80;99.90
4964;DHT22;2497;47.410;9.740;2024-02-28T07:07:41;6.90;99.90
4964;DHT22;2497;47.410;9.740;2024-02-28T07:10:09;6.90;99.90
4964;DHT22;2497;47.410;9.740;2024-02-28T07:12:36;6.90;99.90
4964;DHT22;2497;47.410;9.740;2024-02-28T07:15:04;6.90;99.90
4964;DHT22;2497;47.410;9.740;2024-02-28T07:17:33;6.90;99.90
4964;DHT22;2497;47.410;9.740;2024-02-28T07:20:00;6.90;99.90
4964;DHT22;2497;47.410;9.740;2024-02-28T07:22:42;6.90;99.90
4964;DHT22;2497;47.410;9.740;2024-02-28T07:25:23;7.00;99.90
4964;DHT22;2497;47.410;9.740;2024-02-28T07:28:04;7.00;99.90
4964;DHT22;2497;47.410;9.740;2024-02-28T07:30:45;7.00;99.90
4964;DHT22;2497;47.410;9.740;2024-02-28T09:15:03;8.00;99.90
4964;DHT22;2497;47.410;9.740;2024-02-28T09:17:30;8.00;99.90
4964;DHT22;2497;47.410;9.740;2024-02-28T09:19:57;8.00;99.90
4964;DHT22;2497;47.410;9.740;2024-02-28T09:22:26;8.00;99.90
4964;DHT22;2497;47.410;9.740;2024-02-28T09:24:53;8.00;99.90
4964;DHT22;2497;47.410;9.740;2024-02-28T09:27:20;8.00;99.90
4964;DHT22;2497;47.410;9.740;2024-02-28T09:29:47;7.90;99.90
4964;DHT22;2497;47.410;9.740;2024-02-28T09:32:16;7.90;99.90
4964;DHT22;2497;47.410;9.740;2024-02-28T09:34:44;7.90;99.90
4964;DHT22;2497;47.410;9.740;2024-02-28T09:37:10;8.10;99.90
4964;DHT22;2497;47.410;9.740;2024-02-28T09:39:38;8.00;99.90
4964;DHT22;2497;47.410;9.740;2024-02-28T09:42:06;7.90;99.90
4964;DHT22;2497;47.410;9.740;2024-02-28T09:44:34;7.90;99.90
4964;DHT22;2497;47.410;9.740;2024-02-28T09:47:03;7.90;99.90
4964;DHT22;2497;47.410;9.740;2024-02-28T09:49:34;7.90;99.90
4964;DHT22;2497;47.410;9.740;2024-02-28T09:52:03;7.90;99.90
4964;DHT22;2497;47.410;9.740;2024-02-28T09:54:31;7.90;99.90
4964;DHT22;2497;47.410;9.740;2024-02-28T09:57:01;7.90;99.90
4964;DHT22;2497;47.410;9.740;2024-02-28T09:59:29;7.90;99.90
4964;DHT22;2497;47.410;9.740;2024-02-28T10:01:57;7.90;99.90
4964;DHT22;2497;47.410;9.740;2024-02-28T10:04:26;7.90;99.90
4964;DHT22;2497;47.410;9.740;2024-02-28T10:06:56;7.90;99.90
4964;DHT22;2497;47.410;9.740;2024-02-28T10:09:23;7.90;99.90
4964;DHT22;2497;47.410;9.740;2024-02-28T10:11:50;7.90;99.90
4964;DHT22;2497;47.410;9.740;2024-02-28T10:14:17;7.80;99.90
4964;DHT22;2497;47.410;9.740;2024-02-28T10:16:45;7.90;99.90
4964;DHT22;2497;47.410;9.740;2024-02-28T10:19:12;7.90;99.90
4964;DHT22;2497;47.410;9.740;2024-02-28T10:21:39;7.90;99.90
4964;DHT22;2497;47.410;9.740;2024-02-28T10:24:08;7.90;99.90
4964;DHT22;2497;47.410;9.740;2024-02-28T10:26:42;8.00;99.90
4964;DHT22;2497;47.410;9.740;2024-02-28T10:29:12;8.10;99.90
4964;DHT22;2497;47.410;9.740;2024-02-28T10:31:41;8.00;99.90
4964;DHT22;2497;47.410;9.740;2024-02-28T10:34:08;8.00;99.90
4964;DHT22;2497;47.410;9.740;2024-02-28T10:36:36;8.00;99.90
4964;DHT22;2497;47.410;9.740;2024-02-28T10:39:03;8.10;99.90
4964;DHT22;2497;47.410;9.740;2024-02-28T10:41:34;8.00;99.90
4964;DHT22;2497;47.410;9.740;2024-02-28T10:44:01;8.00;99.90
4964;DHT22;2497;47.410;9.740;2024-02-28T10:46:29;8.10;99.90
4964;DHT22;2497;47.410;9.740;2024-02-28T10:48:57;8.20;99.90
4964;DHT22;2497;47.410;9.740;2024-02-28T10:51:25;8.10;99.90
4964;DHT22;2497;47.410;9.740;2024-02-28T10:54:02;8.10;99.90
4964;DHT22;2497;47.410;9.740;2024-02-28T10:56:35;8.10;99.90
4964;DHT22;2497;47.410;9.740;2024-02-28T10:59:06;8.10;99.90
4964;DHT22;2497;47.410;9.740;2024-02-28T11:01:35;8.10;99.90
4964;DHT22;2497;47.410;9.740;2024-02-28T11:04:03;8.20;99.90
4964;DHT22;2497;47.410;9.740;2024-02-28T11:06:31;8.40;99.90
4964;DHT22;2497;47.410;9.740;2024-02-28T11:08:59;8.30;99.90
4964;DHT22;2497;47.410;9.740;2024-02-28T11:11:30;8.20;99.90
4964;DHT22;2497;47.410;9.740;2024-02-28T11:13:59;8.20;99.90
4964;DHT22;2497;47.410;9.740;2024-02-28T11:16:28;8.10;99.90
4964;DHT22;2497;47.410;9.740;2024-02-28T11:18:55;8.10;99.90
4964;DHT22;2497;47.410;9.740;2024-02-28T11:21:26;8.10;99.90
4964;DHT22;2497;47.410;9.740;2024-02-28T11:23:57;8.10;99.90
4964;DHT22;2497;47.410;9.740;2024-02-28T11:26:25;8.10;99.90
4964;DHT22;2497;47.410;9.740;2024-02-28T11:28:53;8.20;99.90
4964;DHT22;2497;47.410;9.740;2024-02-28T11:31:21;8.20;99.90
4964;DHT22;2497;47.410;9.740;2024-02-28T11:33:49;8.10;99.90
4964;DHT22;2497;47.410;9.740;2024-02-28T11:36:16;8.20;99.90
4964;DHT22;2497;47.410;9.740;2024-02-28T11:38:43;8.20;99.90
4964;DHT22;2497;47.410;9.740;2024-02-28T11:41:12;8.40;99.90
4964;DHT22;2497;47.410;9.740;2024-02-28T11:43:39;8.30;99.90
4964;DHT22;2497;47.410;9.740;2024-02-28T11:46:08;8.40;99.90
4964;DHT22;2497;47.410;9.740;2024-02-28T11:48:38;8.40;99.90
4964;DHT22;2497;47.410;9.740;2024-02-28T11:51:05;8.40;99.90
4964;DHT22;2497;47.410;9.740;2024-02-28T11:53:33;8.40;99.90
4964;DHT22;2497;47.410;9.740;2024-02-28T11:56:00;8.40;99.90
4964;DHT22;2497;47.410;9.740;2024-02-28T11:58:29;8.50;99.90
4964;DHT22;2497;47.410;9.740;2024-02-28T12:00:56;8.60;99.90
4964;DHT22;2497;47.410;9.740;2024-02-28T12:03:24;8.60;99.90
4964;DHT22;2497;47.410;9.740;2024-02-28T12:05:54;8.70;99.90
4964;DHT22;2497;47.410;9.740;2024-02-28T12:08:21;8.80;99.90
4964;DHT22;2497;47.410;9.740;2024-02-28T12:10:48;8.80;99.90
4964;DHT22;2497;47.410;9.740;2024-02-28T12:13:16;8.80;99.90
4964;DHT22;2497;47.410;9.740;2024-02-28T12:15:44;8.90;99.90
4964;DHT22;2497;47.410;9.740;2024-02-28T12:18:12;8.90;99.90
4964;DHT22;2497;47.410;9.740;2024-02-28T12:20:41;8.90;99.90
4964;DHT22;2497;47.410;9.740;2024-02-28T12:23:09;8.90;99.90
4964;DHT22;2497;47.410;9.740;2024-02-28T12:25:36;9.00;99.90
4964;DHT22;2497;47.410;9.740;2024-02-28T12:28:05;9.00;99.90
4964;DHT22;2497;47.410;9.740;2024-02-28T12:30:40;9.00;99.90
4964;DHT22;2497;47.410;9.740;2024-02-28T12:33:08;8.90;99.90
4964;DHT22;2497;47.410;9.740;2024-02-28T12:35:36;8.90;99.90
4964;DHT22;2497;47.410;9.740;2024-02-28T12:38:04;8.90;99.90
4964;DHT22;2497;47.410;9.740;2024-02-28T12:40:32;9.00;99.90
4964;DHT22;2497;47.410;9.740;2024-02-28T12:42:59;9.10;99.90
4964;DHT22;2497;47.410;9.740;2024-02-28T12:45:26;9.00;99.90
4964;DHT22;2497;47.410;9.740;2024-02-28T12:47:53;9.00;99.90
4964;DHT22;2497;47.410;9.740;2024-02-28T12:50:22;8.90;99.90
4964;DHT22;2497;47.410;9.740;2024-02-28T12:52:50;8.80;99.90
4964;DHT22;2497;47.410;9.740;2024-02-28T12:55:19;8.80;99.90
4964;DHT22;2497;47.410;9.740;2024-02-28T12:57:48;8.80;99.90
4964;DHT22;2497;47.410;9.740;2024-02-28T13:00:16;8.80;99.90
4964;DHT22;2497;47.410;9.740;2024-02-28T13:02:44;8.70;99.90
4964;DHT22;2497;47.410;9.740;2024-02-28T13:05:11;8.60;99.90
4964;DHT22;2497;47.410;9.740;2024-02-28T13:07:40;8.60;99.90
4964;DHT22;2497;47.410;9.740;2024-02-28T13:10:07;8.50;99.90
4964;DHT22;2497;47.410;9.740;2024-02-28T13:12:38;8.50;99.90
4964;DHT22;2497;47.410;9.740;2024-02-28T13:15:07;8.60;99.90
4964;DHT22;2497;47.410;9.740;2024-02-28T13:17:34;8.60;99.90
4964;DHT22;2497;47.410;9.740;2024-02-28T13:20:01;8.60;99.90
4964;DHT22;2497;47.410;9.740;2024-02-28T13:22:29;8.60;99.90
4964;DHT22;2497;47.410;9.740;2024-02-28T13:24:56;8.60;99.90
4964;DHT22;2497;47.410;9.740;2024-02-28T13:27:24;8.50;99.90
4964;DHT22;2497;47.410;9.740;2024-02-28T13:29:51;8.50;99.90
4964;DHT22;2497;47.410;9.740;2024-02-28T13:32:20;8.40;99.90
4964;DHT22;2497;47.410;9.740;2024-02-28T13:34:47;8.50;99.90
4964;DHT22;2497;47.410;9.740;2024-02-28T13:37:14;8.60;99.90
4964;DHT22;2497;47.410;9.740;2024-02-28T13:39:41;8.60;99.90
4964;DHT22;2497;47.410;9.740;2024-02-28T13:42:08;8.60;99.90
4964;DHT22;2497;47.410;9.740;2024-02-28T13:44:38;8.50;99.90
4964;DHT22;2497;47.410;9.740;2024-02-28T13:47:06;8.50;99.90
4964;DHT22;2497;47.410;9.740;2024-02-28T13:49:34;8.50;99.90
4964;DHT22;2497;47.410;9.740;2024-02-28T13:52:01;8.50;99.90
4964;DHT22;2497;47.410;9.740;2024-02-28T13:54:29;8.60;99.90
4964;DHT22;2497;47.410;9.740;2024-02-28T13:56:56;8.60;99.90
4964;DHT22;2497;47.410;9.740;2024-02-28T13:59:24;8.70;99.90
4964;DHT22;2497;47.410;9.740;2024-02-28T14:01:51;8.70;99.90
4964;DHT22;2497;47.410;9.740;2024-02-28T14:04:18;8.70;99.90
4964;DHT22;2497;47.410;9.740;2024-02-28T14:06:46;8.70;99.90
4964;DHT22;2497;47.410;9.740;2024-02-28T14:09:15;8.80;99.90
4964;DHT22;2497;47.410;9.740;2024-02-28T14:11:42;8.70;99.90
4964;DHT22;2497;47.410;9.740;2024-02-28T14:14:11;8.60;99.90
4964;DHT22;2497;47.410;9.740;2024-02-28T14:16:38;8.70;99.90
4964;DHT22;2497;47.410;9.740;2024-02-28T14:19:05;8.80;99.90
4964;DHT22;2497;47.410;9.740;2024-02-28T14:21:32;8.80;99.90
4964;DHT22;2497;47.410;9.740;2024-02-28T14:24:01;8.80;99.90
4964;DHT22;2497;47.410;9.740;2024-02-28T14:26:28;8.80;99.90
4964;DHT22;2497;47.410;9.740;2024-02-28T14:28:55;8.70;99.90
4964;DHT22;2497;47.410;9.740;2024-02-28T14:31:22;8.60;99.90
4964;DHT22;2497;47.410;9.740;2024-02-28T14:33:50;8.60;99.90
4964;DHT22;2497;47.410;9.740;2024-02-28T14:36:17;8.60;99.90
4964;DHT22;2497;47.410;9.740;2024-02-28T14:38:46;8.60;99.90
4964;DHT22;2497;47.410;9.740;2024-02-28T14:41:14;8.60;99.90
4964;DHT22;2497;47.410;9.740;2024-02-28T14:43:41;8.60;99.90
4964;DHT22;2497;47.410;9.740;2024-02-28T14:46:08;8.50;99.90
4964;DHT22;2497;47.410;9.740;2024-02-28T14:48:37;8.50;99.90
4964;DHT22;2497;47.410;9.740;2024-02-28T14:51:04;8.40;99.90
4964;DHT22;2497;47.410;9.740;2024-02-28T14:53:32;8.40;99.90
4964;DHT22;2497;47.410;9.740;2024-02-28T14:55:59;8.40;99.90
4964;DHT22;2497;47.410;9.740;2024-02-28T14:58:27;8.40;99.90
4964;DHT22;2497;47.410;9.740;2024-02-28T15:00:54;8.30;99.90
4964;DHT22;2497;47.410;9.740;2024-02-28T15:03:24;8.30;99.90
4964;DHT22;2497;47.410;9.740;2024-02-28T15:05:51;8.30;99.90
4964;DHT22;2497;47.410;9.740;2024-02-28T15:08:18;8.30;99.90
4964;DHT22;2497;47.410;9.740;2024-02-28T15:10:45;8.30;99.90
4964;DHT22;2497;47.410;9.740;2024-02-28T15:13:12;8.30;99.90
4964;DHT22;2497;47.410;9.740;2024-02-28T15:15:41;8.20;99.90
4964;DHT22;2497;47.410;9.740;2024-02-28T15:18:08;8.30;99.90
4964;DHT22;2497;47.410;9.740;2024-02-28T15:20:35;8.50;99.90
4964;DHT22;2497;47.410;9.740;2024-02-28T15:23:03;8.50;99.90
4964;DHT22;2497;47.410;9.740;2024-02-28T15:25:31;8.40;99.90
4964;DHT22;2497;47.410;9.740;2024-02-28T15:27:58;8.40;99.90
4964;DHT22;2497;47.410;9.740;2024-02-28T15:30:25;8.40;99.90
4964;DHT22;2497;47.410;9.740;2024-02-28T15:32:53;8.40;99.90
4964;DHT22;2497;47.410;9.740;2024-02-28T15:35:20;8.40;99.90
4964;DHT22;2497;47.410;9.740;2024-02-28T15:37:48;8.30;99.90
4964;DHT22;2497;47.410;9.740;2024-02-28T15:40:15;8.30;99.90
4964;DHT22;2497;47.410;9.740;2024-02-28T15:42:46;8.30;99.90
4964;DHT22;2497;47.410;9.740;2024-02-28T15:45:13;8.20;99.90
4964;DHT22;2497;47.410;9.740;2024-02-28T15:47:43;8.30;99.90
4964;DHT22;2497;47.410;9.740;2024-02-28T15:50:12;8.30;99.90
4964;DHT22;2497;47.410;9.740;2024-02-28T15:52:40;8.30;99.90
4964;DHT22;2497;47.410;9.740;2024-02-28T15:55:08;8.30;99.90
4964;DHT22;2497;47.410;9.740;2024-02-28T15:57:37;8.40;99.90
4964;DHT22;2497;47.410;9.740;2024-02-28T16:00:05;8.30;99.90
4964;DHT22;2497;47.410;9.740;2024-02-28T16:02:34;8.20;99.90
4964;DHT22;2497;47.410;9.740;2024-02-28T16:05:01;8.20;99.90
4964;DHT22;2497;47.410;9.740;2024-02-28T16:07:30;8.10;99.90
4964;DHT22;2497;47.410;9.740;2024-02-28T16:09:58;8.10;99.90
4964;DHT22;2497;47.410;9.740;2024-02-28T16:12:25;8.10;99.90
4964;DHT22;2497;47.410;9.740;2024-02-28T16:14:53;8.10;99.90
4964;DHT22;2497;47.410;9.740;2024-02-28T16:17:20;8.10;99.90
4964;DHT22;2497;47.410;9.740;2024-02-28T16:19:47;8.10;99.90
4964;DHT22;2497;47.410;9.740;2024-02-28T16:22:14;8.10;99.90
4964;DHT22;2497;47.410;9.740;2024-02-28T16:24:44;8.10;99.90
4964;DHT22;2497;47.410;9.740;2024-02-28T16:27:12;8.10;99.90
4964;DHT22;2497;47.410;9.740;2024-02-28T16:29:39;8.10;99.90
4964;DHT22;2497;47.410;9.740;2024-02-28T16:32:06;8.00;99.90
4964;DHT22;2497;47.410;9.740;2024-02-28T16:34:36;8.00;99.90
4964;DHT22;2497;47.410;9.740;2024-02-28T16:37:05;8.00;99.90
4964;DHT22;2497;47.410;9.740;2024-02-28T16:39:33;7.90;99.90
4964;DHT22;2497;47.410;9.740;2024-02-28T16:42:01;7.90;99.90
4964;DHT22;2497;47.410;9.740;2024-02-28T16:44:29;7.90;99.90
4964;DHT22;2497;47.410;9.740;2024-02-28T16:46:56;8.10;99.90
4964;DHT22;2497;47.410;9.740;2024-02-28T16:49:24;8.00;99.90
4964;DHT22;2497;47.410;9.740;2024-02-28T16:51:51;8.00;99.90
4964;DHT22;2497;47.410;9.740;2024-02-28T16:54:18;7.90;99.90
4964;DHT22;2497;47.410;9.740;2024-02-28T16:56:45;7.90;99.90
4964;DHT22;2497;47.410;9.740;2024-02-28T16:59:13;7.90;99.90
4964;DHT22;2497;47.410;9.740;2024-02-28T17:01:41;7.80;99.90
4964;DHT22;2497;47.410;9.740;2024-02-28T17:04:12;7.90;99.90
4964;DHT22;2497;47.410;9.740;2024-02-28T17:06:42;7.90;99.90
4964;DHT22;2497;47.410;9.740;2024-02-28T17:09:09;8.00;99.90
4964;DHT22;2497;47.410;9.740;2024-02-28T17:11:36;8.00;99.90
4964;DHT22;2497;47.410;9.740;2024-02-28T17:14:04;7.80;99.90
4964;DHT22;2497;47.410;9.740;2024-02-28T17:16:32;7.80;99.90
4964;DHT22;2497;47.410;9.740;2024-02-28T17:18:59;7.80;99.90
4964;DHT22;2497;47.410;9.740;2024-02-28T17:21:26;7.70;99.90
4964;DHT22;2497;47.410;9.740;2024-02-28T17:23:54;7.70;99.90
4964;DHT22;2497;47.410;9.740;2024-02-28T17:26:21;7.80;99.90
4964;DHT22;2497;47.410;9.740;2024-02-28T17:28:48;7.80;99.90
4964;DHT22;2497;47.410;9.740;2024-02-28T17:31:16;7.90;99.90
4964;DHT22;2497;47.410;9.740;2024-02-28T17:33:45;7.70;99.90
4964;DHT22;2497;47.410;9.740;2024-02-28T17:36:13;7.60;99.90
4964;DHT22;2497;47.410;9.740;2024-02-28T17:38:40;7.60;99.90
4964;DHT22;2497;47.410;9.740;2024-02-28T17:41:09;7.60;99.90
4964;DHT22;2497;47.410;9.740;2024-02-28T17:43:36;7.60;99.90
4964;DHT22;2497;47.410;9.740;2024-02-28T17:46:03;7.80;99.90
4964;DHT22;2497;47.410;9.740;2024-02-28T17:48:31;7.70;99.90
4964;DHT22;2497;47.410;9.740;2024-02-28T17:51:03;7.60;99.90
4964;DHT22;2497;47.410;9.740;2024-02-28T17:53:33;7.60;99.90
4964;DHT22;2497;47.410;9.740;2024-02-28T17:56:00;7.70;99.90
4964;DHT22;2497;47.410;9.740;2024-02-28T17:58:28;7.70;99.90
4964;DHT22;2497;47.410;9.740;2024-02-28T18:00:56;7.70;99.90
4964;DHT22;2497;47.410;9.740;2024-02-28T18:03:26;7.70;99.90